sensor_id;sensor_type;location;lat;lon;timestamp;P1;durP1;ratioP1;P2;durP2;ratioP2
12088;SDS011;6107;49.078;8.578;2024-01-15T00:00:43;50.03;;;13.75;;
12088;SDS011;6107;49.078;8.578;2024-01-15T00:03:09;63.47;;;14.50;;
12088;SDS011;6107;49.078;8.578;2024-01-15T00:05:35;39.63;;;12.80;;
12088;SDS011;6107;49.078;8.578;2024-01-15T00:08:01;49.55;;;14.20;;
12088;SDS011;6107;49.078;8.578;2024-01-15T00:10:27;44.63;;;11.00;;
12088;SDS011;6107;49.078;8.578;2024-01-15T00:12:52;59.13;;;16.35;;
12088;SDS011;6107;49.078;8.578;2024-01-15T00:15:18;69.75;;;17.50;;
12088;SDS011;6107;49.078;8.578;2024-01-15T00:17:43;41.08;;;11.63;;
12088;SDS011;6107;49.078;8.578;2024-01-15T00:20:09;60.40;;;16.10;;
12088;SDS011;6107;49.078;8.578;2024-01-15T00:22:35;43.28;;;14.98;;
12088;SDS011;6107;49.078;8.578;2024-01-15T00:25:01;62.42;;;17.65;;
12088;SDS011;6107;49.078;8.578;2024-01-15T00:27:27;63.13;;;16.60;;
12088;SDS011;6107;49.078;8.578;2024-01-15T00:29:53;50.08;;;14.88;;
12088;SDS011;6107;49.078;8.578;2024-01-15T00:32:19;60.33;;;16.60;;
12088;SDS011;6107;49.078;8.578;2024-01-15T00:34:45;45.15;;;13.02;;
12088;SDS011;6107;49.078;8.578;2024-01-15T00:37:11;50.10;;;14.57;;
12088;SDS011;6107;49.078;8.578;2024-01-15T00:39:37;44.58;;;14.77;;
12088;SDS011;6107;49.078;8.578;2024-01-15T00:42:02;59.58;;;17.05;;
12088;SDS011;6107;49.078;8.578;2024-01-15T00:44:28;50.15;;;16.00;;
12088;SDS011;6107;49.078;8.578;2024-01-15T00:46:54;44.30;;;13.45;;
12088;SDS011;6107;49.078;8.578;2024-01-15T00:49:19;64.78;;;17.90;;
12088;SDS011;6107;49.078;8.578;2024-01-15T00:51:45;59.33;;;15.13;;
12088;SDS011;6107;49.078;8.578;2024-01-15T00:54:11;56.20;;;15.98;;
12088;SDS011;6107;49.078;8.578;2024-01-15T00:56:36;60.55;;;15.98;;
12088;SDS011;6107;49.078;8.578;2024-01-15T00:59:02;60.97;;;18.25;;
12088;SDS011;6107;49.078;8.578;2024-01-15T01:01:28;61.03;;;17.15;;
12088;SDS011;6107;49.078;8.578;2024-01-15T01:03:53;60.47;;;17.20;;
12088;SDS011;6107;49.078;8.578;2024-01-15T01:06:19;56.60;;;17.38;;
12088;SDS011;6107;49.078;8.578;2024-01-15T01:08:44;53.00;;;14.18;;
12088;SDS011;6107;49.078;8.578;2024-01-15T01:11:14;53.28;;;15.27;;
12088;SDS011;6107;49.078;8.578;2024-01-15T01:13:42;65.28;;;18.77;;
12088;SDS011;6107;49.078;8.578;2024-01-15T01:16:08;54.58;;;17.10;;
12088;SDS011;6107;49.078;8.578;2024-01-15T01:18:34;45.85;;;15.38;;
12088;SDS011;6107;49.078;8.578;2024-01-15T01:21:00;50.55;;;15.82;;
12088;SDS011;6107;49.078;8.578;2024-01-15T01:23:25;73.60;;;18.67;;
12088;SDS011;6107;49.078;8.578;2024-01-15T01:25:51;56.20;;;15.23;;
12088;SDS011;6107;49.078;8.578;2024-01-15T01:28:17;62.22;;;15.68;;
12088;SDS011;6107;49.078;8.578;2024-01-15T01:30:42;60.30;;;15.75;;
12088;SDS011;6107;49.078;8.578;2024-01-15T01:33:08;48.28;;;15.63;;
12088;SDS011;6107;49.078;8.578;2024-01-15T01:35:33;56.20;;;16.00;;
12088;SDS011;6107;49.078;8.578;2024-01-15T01:37:59;52.67;;;15.73;;
12088;SDS011;6107;49.078;8.578;2024-01-15T01:40:25;61.45;;;16.80;;
12088;SDS011;6107;49.078;8.578;2024-01-15T01:42:50;54.38;;;17.63;;
12088;SDS011;6107;49.078;8.578;2024-01-15T01:45:16;51.00;;;15.95;;
12088;SDS011;6107;49.078;8.578;2024-01-15T01:47:41;59.05;;;17.02;;
12088;SDS011;6107;49.078;8.578;2024-01-15T01:50:07;64.00;;;16.55;;
12088;SDS011;6107;49.078;8.578;2024-01-15T01:52:33;66.00;;;17.13;;
12088;SDS011;6107;49.078;8.578;2024-01-15T01:55:01;47.28;;;15.02;;
12088;SDS011;6107;49.078;8.578;2024-01-15T01:57:28;49.70;;;16.05;;
12088;SDS011;6107;49.078;8.578;2024-01-15T01:59:54;58.60;;;15.38;;
12088;SDS011;6107;49.078;8.578;2024-01-15T02:02:20;55.10;;;16.63;;
12088;SDS011;6107;49.078;8.578;2024-01-15T02:04:47;38.92;;;13.75;;
12088;SDS011;6107;49.078;8.578;2024-01-15T02:07:14;31.83;;;11.85;;
12088;SDS011;6107;49.078;8.578;2024-01-15T02:09:42;20.95;;;8.20;;
12088;SDS011;6107;49.078;8.578;2024-01-15T02:12:09;53.97;;;15.60;;
12088;SDS011;6107;49.078;8.578;2024-01-15T02:14:35;57.88;;;15.82;;
12088;SDS011;6107;49.078;8.578;2024-01-15T02:17:00;51.13;;;12.15;;
12088;SDS011;6107;49.078;8.578;2024-01-15T02:19:26;55.28;;;15.30;;
12088;SDS011;6107;49.078;8.578;2024-01-15T02:21:52;49.03;;;16.02;;
12088;SDS011;6107;49.078;8.578;2024-01-15T02:24:17;54.78;;;14.60;;
12088;SDS011;6107;49.078;8.578;2024-01-15T02:26:43;53.83;;;15.57;;
12088;SDS011;6107;49.078;8.578;2024-01-15T02:29:09;47.70;;;14.18;;
12088;SDS011;6107;49.078;8.578;2024-01-15T02:31:36;45.45;;;15.23;;
12088;SDS011;6107;49.078;8.578;2024-01-15T02:34:02;50.85;;;14.85;;
12088;SDS011;6107;49.078;8.578;2024-01-15T02:36:27;49.63;;;15.20;;
12088;SDS011;6107;49.078;8.578;2024-01-15T02:38:53;59.88;;;16.02;;
12088;SDS011;6107;49.078;8.578;2024-01-15T02:41:19;49.35;;;13.52;;
12088;SDS011;6107;49.078;8.578;2024-01-15T02:43:44;52.75;;;16.20;;
12088;SDS011;6107;49.078;8.578;2024-01-15T02:46:10;47.33;;;15.63;;
12088;SDS011;6107;49.078;8.578;2024-01-15T02:48:35;41.67;;;11.77;;
12088;SDS011;6107;49.078;8.578;2024-01-15T02:51:01;46.30;;;14.30;;
12088;SDS011;6107;49.078;8.578;2024-01-15T02:53:27;47.00;;;14.27;;
12088;SDS011;6107;49.078;8.578;2024-01-15T02:55:53;56.65;;;16.15;;
12088;SDS011;6107;49.078;8.578;2024-01-15T02:58:18;49.00;;;14.27;;
12088;SDS011;6107;49.078;8.578;2024-01-15T03:00:44;47.00;;;14.38;;
12088;SDS011;6107;49.078;8.578;2024-01-15T03:03:11;55.78;;;15.30;;
12088;SDS011;6107;49.078;8.578;2024-01-15T03:05:37;45.80;;;14.57;;
12088;SDS011;6107;49.078;8.578;2024-01-15T03:08:02;47.92;;;14.23;;
12088;SDS011;6107;49.078;8.578;2024-01-15T03:10:28;42.97;;;14.52;;
12088;SDS011;6107;49.078;8.578;2024-01-15T03:12:54;45.15;;;13.93;;
12088;SDS011;6107;49.078;8.578;2024-01-15T03:15:19;53.75;;;15.65;;
12088;SDS011;6107;49.078;8.578;2024-01-15T03:17:45;57.42;;;15.73;;
12088;SDS011;6107;49.078;8.578;2024-01-15T03:20:11;50.47;;;15.15;;
12088;SDS011;6107;49.078;8.578;2024-01-15T03:22:37;47.60;;;15.35;;
12088;SDS011;6107;49.078;8.578;2024-01-15T03:25:03;47.00;;;13.85;;
12088;SDS011;6107;49.078;8.578;2024-01-15T03:27:29;40.25;;;12.68;;
12088;SDS011;6107;49.078;8.578;2024-01-15T03:29:55;55.03;;;16.42;;
12088;SDS011;6107;49.078;8.578;2024-01-15T03:32:20;49.78;;;15.50;;
12088;SDS011;6107;49.078;8.578;2024-01-15T03:34:46;57.65;;;16.58;;
12088;SDS011;6107;49.078;8.578;2024-01-15T03:37:12;57.72;;;15.88;;
12088;SDS011;6107;49.078;8.578;2024-01-15T03:39:38;51.05;;;15.93;;
12088;SDS011;6107;49.078;8.578;2024-01-15T03:42:04;40.60;;;13.82;;
12088;SDS011;6107;49.078;8.578;2024-01-15T03:44:29;44.92;;;14.60;;
12088;SDS011;6107;49.078;8.578;2024-01-15T03:46:55;49.85;;;14.82;;
12088;SDS011;6107;49.078;8.578;2024-01-15T03:49:21;50.42;;;14.80;;
12088;SDS011;6107;49.078;8.578;2024-01-15T03:51:46;44.28;;;14.65;;
12088;SDS011;6107;49.078;8.578;2024-01-15T03:54:12;32.70;;;11.45;;
12088;SDS011;6107;49.078;8.578;2024-01-15T03:56:38;68.90;;;16.33;;
12088;SDS011;6107;49.078;8.578;2024-01-15T03:59:03;40.63;;;12.82;;
12088;SDS011;6107;49.078;8.578;2024-01-15T04:01:29;49.78;;;13.13;;
12088;SDS011;6107;49.078;8.578;2024-01-15T04:03:55;46.70;;;13.20;;
12088;SDS011;6107;49.078;8.578;2024-01-15T04:06:20;46.85;;;14.15;;
12088;SDS011;6107;49.078;8.578;2024-01-15T04:08:46;46.15;;;14.05;;
12088;SDS011;6107;49.078;8.578;2024-01-15T04:11:12;46.97;;;14.52;;
12088;SDS011;6107;49.078;8.578;2024-01-15T04:13:37;52.30;;;14.88;;
12088;SDS011;6107;49.078;8.578;2024-01-15T04:16:03;39.85;;;13.15;;
12088;SDS011;6107;49.078;8.578;2024-01-15T04:18:29;47.80;;;14.77;;
12088;SDS011;6107;49.078;8.578;2024-01-15T04:20:55;47.65;;;15.10;;
12088;SDS011;6107;49.078;8.578;2024-01-15T04:23:20;45.05;;;13.95;;
12088;SDS011;6107;49.078;8.578;2024-01-15T04:25:46;39.83;;;12.88;;
12088;SDS011;6107;49.078;8.578;2024-01-15T04:28:12;46.63;;;14.55;;
12088;SDS011;6107;49.078;8.578;2024-01-15T04:30:38;36.53;;;11.77;;
12088;SDS011;6107;49.078;8.578;2024-01-15T04:33:03;44.80;;;15.55;;
12088;SDS011;6107;49.078;8.578;2024-01-15T04:35:30;38.80;;;12.57;;
12088;SDS011;6107;49.078;8.578;2024-01-15T04:37:56;50.53;;;15.27;;
12088;SDS011;6107;49.078;8.578;2024-01-15T04:40:22;50.15;;;14.15;;
12088;SDS011;6107;49.078;8.578;2024-01-15T04:42:47;42.65;;;12.55;;
12088;SDS011;6107;49.078;8.578;2024-01-15T04:45:13;53.40;;;15.57;;
12088;SDS011;6107;49.078;8.578;2024-01-15T04:47:39;47.17;;;15.05;;
12088;SDS011;6107;49.078;8.578;2024-01-15T04:50:04;46.67;;;13.95;;
12088;SDS011;6107;49.078;8.578;2024-01-15T04:52:31;46.50;;;14.90;;
12088;SDS011;6107;49.078;8.578;2024-01-15T04:54:56;41.95;;;14.70;;
12088;SDS011;6107;49.078;8.578;2024-01-15T04:57:22;43.50;;;13.75;;
12088;SDS011;6107;49.078;8.578;2024-01-15T04:59:48;54.47;;;15.63;;
12088;SDS011;6107;49.078;8.578;2024-01-15T05:02:13;46.22;;;14.27;;
12088;SDS011;6107;49.078;8.578;2024-01-15T05:04:39;58.05;;;15.82;;
12088;SDS011;6107;49.078;8.578;2024-01-15T05:07:04;55.38;;;15.75;;
12088;SDS011;6107;49.078;8.578;2024-01-15T05:09:30;45.78;;;15.75;;
12088;SDS011;6107;49.078;8.578;2024-01-15T05:11:56;42.17;;;13.02;;
12088;SDS011;6107;49.078;8.578;2024-01-15T05:14:21;48.28;;;14.18;;
12088;SDS011;6107;49.078;8.578;2024-01-15T05:16:47;45.20;;;14.20;;
12088;SDS011;6107;49.078;8.578;2024-01-15T05:19:13;29.60;;;11.50;;
12088;SDS011;6107;49.078;8.578;2024-01-15T05:21:39;49.05;;;14.65;;
12088;SDS011;6107;49.078;8.578;2024-01-15T05:24:04;45.97;;;14.75;;
12088;SDS011;6107;49.078;8.578;2024-01-15T05:26:30;54.38;;;14.93;;
12088;SDS011;6107;49.078;8.578;2024-01-15T05:28:56;50.10;;;15.95;;
12088;SDS011;6107;49.078;8.578;2024-01-15T05:31:22;47.22;;;14.75;;
12088;SDS011;6107;49.078;8.578;2024-01-15T05:33:47;44.08;;;13.05;;
12088;SDS011;6107;49.078;8.578;2024-01-15T05:36:13;50.25;;;14.45;;
12088;SDS011;6107;49.078;8.578;2024-01-15T05:38:39;50.83;;;14.18;;
12088;SDS011;6107;49.078;8.578;2024-01-15T05:41:05;48.15;;;15.25;;
12088;SDS011;6107;49.078;8.578;2024-01-15T05:43:31;48.97;;;15.60;;
12088;SDS011;6107;49.078;8.578;2024-01-15T05:45:56;42.35;;;13.90;;
12088;SDS011;6107;49.078;8.578;2024-01-15T05:48:22;51.17;;;16.30;;
12088;SDS011;6107;49.078;8.578;2024-01-15T05:50:48;41.13;;;13.95;;
12088;SDS011;6107;49.078;8.578;2024-01-15T05:53:13;39.83;;;14.70;;
12088;SDS011;6107;49.078;8.578;2024-01-15T05:55:39;51.83;;;15.90;;
12088;SDS011;6107;49.078;8.578;2024-01-15T05:58:05;52.17;;;14.32;;
12088;SDS011;6107;49.078;8.578;2024-01-15T06:00:31;49.25;;;16.48;;
12088;SDS011;6107;49.078;8.578;2024-01-15T06:02:58;55.55;;;17.27;;
12088;SDS011;6107;49.078;8.578;2024-01-15T06:05:26;45.70;;;14.77;;
12088;SDS011;6107;49.078;8.578;2024-01-15T06:07:52;40.88;;;14.02;;
12088;SDS011;6107;49.078;8.578;2024-01-15T06:10:18;49.97;;;16.55;;
12088;SDS011;6107;49.078;8.578;2024-01-15T06:12:43;40.92;;;13.80;;
12088;SDS011;6107;49.078;8.578;2024-01-15T06:15:09;56.33;;;16.83;;
12088;SDS011;6107;49.078;8.578;2024-01-15T06:17:35;42.22;;;14.23;;
12088;SDS011;6107;49.078;8.578;2024-01-15T06:20:01;51.75;;;14.73;;
12088;SDS011;6107;49.078;8.578;2024-01-15T06:22:28;50.35;;;15.30;;
12088;SDS011;6107;49.078;8.578;2024-01-15T06:24:53;55.42;;;17.10;;
12088;SDS011;6107;49.078;8.578;2024-01-15T06:27:20;48.38;;;16.60;;
12088;SDS011;6107;49.078;8.578;2024-01-15T06:29:46;51.15;;;15.55;;
12088;SDS011;6107;49.078;8.578;2024-01-15T06:32:14;53.30;;;15.98;;
12088;SDS011;6107;49.078;8.578;2024-01-15T06:34:40;48.38;;;16.02;;
12088;SDS011;6107;49.078;8.578;2024-01-15T06:37:06;53.63;;;17.38;;
12088;SDS011;6107;49.078;8.578;2024-01-15T06:39:31;51.05;;;17.83;;
12088;SDS011;6107;49.078;8.578;2024-01-15T06:41:57;51.45;;;18.13;;
12088;SDS011;6107;49.078;8.578;2024-01-15T06:44:23;55.25;;;17.05;;
12088;SDS011;6107;49.078;8.578;2024-01-15T06:46:49;58.05;;;16.98;;
12088;SDS011;6107;49.078;8.578;2024-01-15T06:49:14;51.85;;;15.55;;
12088;SDS011;6107;49.078;8.578;2024-01-15T06:51:40;52.03;;;16.40;;
12088;SDS011;6107;49.078;8.578;2024-01-15T06:54:06;53.00;;;16.08;;
12088;SDS011;6107;49.078;8.578;2024-01-15T06:56:32;47.80;;;15.95;;
12088;SDS011;6107;49.078;8.578;2024-01-15T06:58:58;51.60;;;16.48;;
12088;SDS011;6107;49.078;8.578;2024-01-15T07:01:24;50.40;;;15.88;;
12088;SDS011;6107;49.078;8.578;2024-01-15T07:03:49;48.25;;;16.60;;
12088;SDS011;6107;49.078;8.578;2024-01-15T07:06:15;54.33;;;17.45;;
12088;SDS011;6107;49.078;8.578;2024-01-15T07:08:41;46.20;;;15.40;;
12088;SDS011;6107;49.078;8.578;2024-01-15T07:11:07;52.28;;;17.52;;
12088;SDS011;6107;49.078;8.578;2024-01-15T07:13:33;54.60;;;18.17;;
12088;SDS011;6107;49.078;8.578;2024-01-15T07:15:59;49.05;;;15.82;;
12088;SDS011;6107;49.078;8.578;2024-01-15T07:18:24;50.42;;;17.85;;
12088;SDS011;6107;49.078;8.578;2024-01-15T07:20:50;61.38;;;17.85;;
12088;SDS011;6107;49.078;8.578;2024-01-15T07:23:16;65.07;;;18.77;;
12088;SDS011;6107;49.078;8.578;2024-01-15T07:25:42;53.50;;;17.70;;
12088;SDS011;6107;49.078;8.578;2024-01-15T07:28:08;49.58;;;17.45;;
12088;SDS011;6107;49.078;8.578;2024-01-15T07:30:34;48.67;;;16.33;;
12088;SDS011;6107;49.078;8.578;2024-01-15T07:33:00;52.20;;;16.48;;
12088;SDS011;6107;49.078;8.578;2024-01-15T07:35:25;52.63;;;18.23;;
12088;SDS011;6107;49.078;8.578;2024-01-15T07:37:51;50.85;;;15.93;;
12088;SDS011;6107;49.078;8.578;2024-01-15T07:40:16;58.95;;;19.25;;
12088;SDS011;6107;49.078;8.578;2024-01-15T07:42:42;49.53;;;16.70;;
12088;SDS011;6107;49.078;8.578;2024-01-15T07:45:08;59.25;;;15.70;;
12088;SDS011;6107;49.078;8.578;2024-01-15T07:47:35;50.40;;;16.35;;
12088;SDS011;6107;49.078;8.578;2024-01-15T07:50:01;51.05;;;16.00;;
12088;SDS011;6107;49.078;8.578;2024-01-15T07:52:26;56.95;;;17.33;;
12088;SDS011;6107;49.078;8.578;2024-01-15T07:54:52;49.28;;;14.98;;
12088;SDS011;6107;49.078;8.578;2024-01-15T07:57:18;46.25;;;15.95;;
12088;SDS011;6107;49.078;8.578;2024-01-15T07:59:43;59.85;;;16.60;;
12088;SDS011;6107;49.078;8.578;2024-01-15T08:02:09;53.45;;;16.52;;
12088;SDS011;6107;49.078;8.578;2024-01-15T08:04:36;51.78;;;17.33;;
12088;SDS011;6107;49.078;8.578;2024-01-15T08:07:03;43.25;;;16.00;;
12088;SDS011;6107;49.078;8.578;2024-01-15T08:09:29;50.97;;;15.57;;
12088;SDS011;6107;49.078;8.578;2024-01-15T08:11:55;47.08;;;15.73;;
12088;SDS011;6107;49.078;8.578;2024-01-15T08:14:20;50.65;;;15.63;;
12088;SDS011;6107;49.078;8.578;2024-01-15T08:16:46;43.50;;;15.50;;
12088;SDS011;6107;49.078;8.578;2024-01-15T08:19:11;39.30;;;13.35;;
12088;SDS011;6107;49.078;8.578;2024-01-15T08:21:37;48.38;;;15.88;;
12088;SDS011;6107;49.078;8.578;2024-01-15T08:24:03;51.13;;;17.17;;
12088;SDS011;6107;49.078;8.578;2024-01-15T08:26:29;52.92;;;16.25;;
12088;SDS011;6107;49.078;8.578;2024-01-15T08:28:54;42.58;;;15.38;;
12088;SDS011;6107;49.078;8.578;2024-01-15T08:31:20;49.30;;;14.15;;
12088;SDS011;6107;49.078;8.578;2024-01-15T08:33:46;45.70;;;15.57;;
12088;SDS011;6107;49.078;8.578;2024-01-15T08:36:12;44.42;;;15.38;;
12088;SDS011;6107;49.078;8.578;2024-01-15T08:38:38;48.05;;;15.55;;
12088;SDS011;6107;49.078;8.578;2024-01-15T08:41:04;48.70;;;15.18;;
12088;SDS011;6107;49.078;8.578;2024-01-15T08:43:29;53.55;;;15.27;;
12088;SDS011;6107;49.078;8.578;2024-01-15T08:46:02;49.70;;;16.17;;
12088;SDS011;6107;49.078;8.578;2024-01-15T08:48:32;48.28;;;16.75;;
12088;SDS011;6107;49.078;8.578;2024-01-15T08:50:58;47.65;;;16.70;;
12088;SDS011;6107;49.078;8.578;2024-01-15T08:53:23;35.72;;;12.50;;
12088;SDS011;6107;49.078;8.578;2024-01-15T08:55:49;34.78;;;12.05;;
12088;SDS011;6107;49.078;8.578;2024-01-15T08:58:15;50.50;;;16.48;;
12088;SDS011;6107;49.078;8.578;2024-01-15T09:00:40;45.95;;;15.25;;
12088;SDS011;6107;49.078;8.578;2024-01-15T09:03:06;53.22;;;16.02;;
12088;SDS011;6107;49.078;8.578;2024-01-15T09:05:33;43.88;;;16.50;;
12088;SDS011;6107;49.078;8.578;2024-01-15T09:07:59;46.75;;;16.20;;
12088;SDS011;6107;49.078;8.578;2024-01-15T09:10:24;48.13;;;17.20;;
12088;SDS011;6107;49.078;8.578;2024-01-15T09:12:50;45.92;;;15.68;;
12088;SDS011;6107;49.078;8.578;2024-01-15T09:15:16;49.10;;;16.85;;
12088;SDS011;6107;49.078;8.578;2024-01-15T09:17:42;57.67;;;16.92;;
12088;SDS011;6107;49.078;8.578;2024-01-15T09:20:08;40.60;;;15.00;;
12088;SDS011;6107;49.078;8.578;2024-01-15T09:22:34;38.53;;;13.18;;
12088;SDS011;6107;49.078;8.578;2024-01-15T09:25:02;41.72;;;14.15;;
12088;SDS011;6107;49.078;8.578;2024-01-15T09:27:29;43.80;;;14.27;;
12088;SDS011;6107;49.078;8.578;2024-01-15T09:29:54;45.60;;;13.93;;
12088;SDS011;6107;49.078;8.578;2024-01-15T09:32:20;37.22;;;14.40;;
12088;SDS011;6107;49.078;8.578;2024-01-15T09:34:46;54.83;;;15.85;;
12088;SDS011;6107;49.078;8.578;2024-01-15T09:37:12;41.78;;;15.27;;
12088;SDS011;6107;49.078;8.578;2024-01-15T09:39:39;44.17;;;15.13;;
12088;SDS011;6107;49.078;8.578;2024-01-15T09:42:05;41.88;;;15.20;;
12088;SDS011;6107;49.078;8.578;2024-01-15T09:44:31;42.42;;;14.45;;
12088;SDS011;6107;49.078;8.578;2024-01-15T09:46:57;43.03;;;13.70;;
12088;SDS011;6107;49.078;8.578;2024-01-15T09:49:23;44.55;;;15.45;;
12088;SDS011;6107;49.078;8.578;2024-01-15T09:51:48;45.75;;;13.05;;
12088;SDS011;6107;49.078;8.578;2024-01-15T09:54:15;41.28;;;14.52;;
12088;SDS011;6107;49.078;8.578;2024-01-15T09:56:44;33.83;;;13.00;;
12088;SDS011;6107;49.078;8.578;2024-01-15T09:59:14;45.25;;;14.35;;
12088;SDS011;6107;49.078;8.578;2024-01-15T10:01:44;40.38;;;15.02;;
12088;SDS011;6107;49.078;8.578;2024-01-15T10:04:10;40.88;;;14.02;;
12088;SDS011;6107;49.078;8.578;2024-01-15T10:06:37;36.08;;;13.00;;
12088;SDS011;6107;49.078;8.578;2024-01-15T10:09:04;41.75;;;13.45;;
12088;SDS011;6107;49.078;8.578;2024-01-15T10:11:30;42.88;;;14.73;;
12088;SDS011;6107;49.078;8.578;2024-01-15T10:13:57;39.88;;;15.18;;
12088;SDS011;6107;49.078;8.578;2024-01-15T10:16:22;43.08;;;14.48;;
12088;SDS011;6107;49.078;8.578;2024-01-15T10:18:49;41.85;;;14.68;;
12088;SDS011;6107;49.078;8.578;2024-01-15T10:21:14;38.53;;;12.63;;
12088;SDS011;6107;49.078;8.578;2024-01-15T10:23:40;47.80;;;15.32;;
12088;SDS011;6107;49.078;8.578;2024-01-15T10:26:06;40.35;;;13.27;;
12088;SDS011;6107;49.078;8.578;2024-01-15T10:28:32;35.95;;;13.98;;
12088;SDS011;6107;49.078;8.578;2024-01-15T10:30:58;41.13;;;15.77;;
12088;SDS011;6107;49.078;8.578;2024-01-15T10:33:24;38.83;;;14.02;;
12088;SDS011;6107;49.078;8.578;2024-01-15T10:35:57;38.42;;;13.73;;
12088;SDS011;6107;49.078;8.578;2024-01-15T10:38:25;46.58;;;14.52;;
12088;SDS011;6107;49.078;8.578;2024-01-15T10:40:55;44.45;;;15.27;;
12088;SDS011;6107;49.078;8.578;2024-01-15T10:43:21;48.17;;;15.07;;
12088;SDS011;6107;49.078;8.578;2024-01-15T10:45:48;46.13;;;16.65;;
12088;SDS011;6107;49.078;8.578;2024-01-15T10:48:18;54.08;;;14.80;;
12088;SDS011;6107;49.078;8.578;2024-01-15T10:50:45;44.55;;;14.93;;
12088;SDS011;6107;49.078;8.578;2024-01-15T10:53:15;46.45;;;14.90;;
12088;SDS011;6107;49.078;8.578;2024-01-15T10:55:42;36.08;;;13.70;;
12088;SDS011;6107;49.078;8.578;2024-01-15T10:58:08;52.97;;;15.65;;
12088;SDS011;6107;49.078;8.578;2024-01-15T11:00:35;45.72;;;15.07;;
12088;SDS011;6107;49.078;8.578;2024-01-15T11:03:02;47.25;;;14.73;;
12088;SDS011;6107;49.078;8.578;2024-01-15T11:05:39;47.80;;;15.15;;
12088;SDS011;6107;49.078;8.578;2024-01-15T11:08:16;46.72;;;14.80;;
12088;SDS011;6107;49.078;8.578;2024-01-15T11:10:52;47.10;;;14.60;;
12088;SDS011;6107;49.078;8.578;2024-01-15T11:13:20;41.20;;;15.45;;
12088;SDS011;6107;49.078;8.578;2024-01-15T11:18:29;46.03;;;14.77;;
12088;SDS011;6107;49.078;8.578;2024-01-15T11:23:43;43.35;;;14.98;;
12088;SDS011;6107;49.078;8.578;2024-01-15T11:29:06;41.75;;;13.55;;
12088;SDS011;6107;49.078;8.578;2024-01-15T11:34:05;30.35;;;11.82;;
12088;SDS011;6107;49.078;8.578;2024-01-15T11:41:57;32.70;;;12.30;;
12088;SDS011;6107;49.078;8.578;2024-01-15T11:44:24;44.85;;;14.25;;
12088;SDS011;6107;49.078;8.578;2024-01-15T11:47:03;37.70;;;13.18;;
12088;SDS011;6107;49.078;8.578;2024-01-15T11:52:32;32.10;;;11.60;;
12088;SDS011;6107;49.078;8.578;2024-01-15T11:55:12;36.95;;;12.85;;
12088;SDS011;6107;49.078;8.578;2024-01-15T11:57:50;47.65;;;13.85;;
12088;SDS011;6107;49.078;8.578;2024-01-15T12:00:19;35.17;;;10.50;;
12088;SDS011;6107;49.078;8.578;2024-01-15T12:02:46;39.67;;;13.02;;
12088;SDS011;6107;49.078;8.578;2024-01-15T12:05:14;36.22;;;13.13;;
12088;SDS011;6107;49.078;8.578;2024-01-15T12:07:41;42.00;;;13.13;;
12088;SDS011;6107;49.078;8.578;2024-01-15T12:10:09;31.23;;;10.40;;
12088;SDS011;6107;49.078;8.578;2024-01-15T12:15:23;35.00;;;12.23;;
12088;SDS011;6107;49.078;8.578;2024-01-15T12:17:49;33.85;;;11.25;;
12088;SDS011;6107;49.078;8.578;2024-01-15T12:20:15;34.80;;;13.23;;
12088;SDS011;6107;49.078;8.578;2024-01-15T12:22:42;36.30;;;12.45;;
12088;SDS011;6107;49.078;8.578;2024-01-15T12:25:08;46.95;;;13.55;;
12088;SDS011;6107;49.078;8.578;2024-01-15T12:27:34;34.88;;;12.40;;
12088;SDS011;6107;49.078;8.578;2024-01-15T12:30:00;30.95;;;12.05;;
12088;SDS011;6107;49.078;8.578;2024-01-15T12:32:25;34.50;;;12.65;;
12088;SDS011;6107;49.078;8.578;2024-01-15T12:34:51;30.55;;;11.40;;
12088;SDS011;6107;49.078;8.578;2024-01-15T12:37:20;33.83;;;12.15;;
12088;SDS011;6107;49.078;8.578;2024-01-15T12:39:47;32.03;;;12.63;;
12088;SDS011;6107;49.078;8.578;2024-01-15T12:42:16;29.83;;;9.98;;
12088;SDS011;6107;49.078;8.578;2024-01-15T12:44:42;34.03;;;12.40;;
12088;SDS011;6107;49.078;8.578;2024-01-15T12:47:09;33.92;;;12.25;;
12088;SDS011;6107;49.078;8.578;2024-01-15T12:49:38;33.92;;;11.55;;
12088;SDS011;6107;49.078;8.578;2024-01-15T12:52:08;31.77;;;12.02;;
12088;SDS011;6107;49.078;8.578;2024-01-15T12:54:34;29.80;;;11.90;;
12088;SDS011;6107;49.078;8.578;2024-01-15T12:57:00;28.67;;;11.68;;
12088;SDS011;6107;49.078;8.578;2024-01-15T12:59:26;31.85;;;12.43;;
12088;SDS011;6107;49.078;8.578;2024-01-15T13:01:51;28.95;;;11.98;;
12088;SDS011;6107;49.078;8.578;2024-01-15T13:04:24;34.83;;;12.25;;
12088;SDS011;6107;49.078;8.578;2024-01-15T13:06:50;29.05;;;11.25;;
12088;SDS011;6107;49.078;8.578;2024-01-15T13:09:19;34.35;;;11.50;;
12088;SDS011;6107;49.078;8.578;2024-01-15T13:11:45;32.17;;;11.07;;
12088;SDS011;6107;49.078;8.578;2024-01-15T13:14:11;28.95;;;11.38;;
12088;SDS011;6107;49.078;8.578;2024-01-15T13:16:38;27.05;;;10.82;;
12088;SDS011;6107;49.078;8.578;2024-01-15T13:19:06;27.23;;;10.10;;
12088;SDS011;6107;49.078;8.578;2024-01-15T13:21:36;12.85;;;5.32;;
12088;SDS011;6107;49.078;8.578;2024-01-15T13:24:08;27.95;;;10.43;;
12088;SDS011;6107;49.078;8.578;2024-01-15T13:26:34;27.33;;;11.23;;
12088;SDS011;6107;49.078;8.578;2024-01-15T13:29:01;23.58;;;10.02;;
12088;SDS011;6107;49.078;8.578;2024-01-15T13:31:27;26.55;;;10.10;;
12088;SDS011;6107;49.078;8.578;2024-01-15T13:33:53;22.02;;;8.77;;
12088;SDS011;6107;49.078;8.578;2024-01-15T13:36:20;21.75;;;9.95;;
12088;SDS011;6107;49.078;8.578;2024-01-15T13:38:46;30.58;;;11.10;;
12088;SDS011;6107;49.078;8.578;2024-01-15T13:41:12;23.80;;;9.32;;
12088;SDS011;6107;49.078;8.578;2024-01-15T13:43:37;22.67;;;8.48;;
12088;SDS011;6107;49.078;8.578;2024-01-15T13:46:03;23.50;;;8.70;;
12088;SDS011;6107;49.078;8.578;2024-01-15T13:48:30;22.02;;;10.50;;
12088;SDS011;6107;49.078;8.578;2024-01-15T13:50:57;27.13;;;10.27;;
12088;SDS011;6107;49.078;8.578;2024-01-15T13:53:23;27.67;;;9.75;;
12088;SDS011;6107;49.078;8.578;2024-01-15T13:55:49;20.83;;;9.52;;
12088;SDS011;6107;49.078;8.578;2024-01-15T13:58:15;20.80;;;8.80;;
12088;SDS011;6107;49.078;8.578;2024-01-15T14:00:41;24.90;;;9.65;;
12088;SDS011;6107;49.078;8.578;2024-01-15T14:03:06;21.73;;;8.90;;
12088;SDS011;6107;49.078;8.578;2024-01-15T14:05:32;26.73;;;9.50;;
12088;SDS011;6107;49.078;8.578;2024-01-15T14:07:57;22.63;;;8.60;;
12088;SDS011;6107;49.078;8.578;2024-01-15T14:10:23;19.77;;;8.70;;
12088;SDS011;6107;49.078;8.578;2024-01-15T14:12:49;19.02;;;8.40;;
12088;SDS011;6107;49.078;8.578;2024-01-15T14:15:15;20.35;;;8.40;;
12088;SDS011;6107;49.078;8.578;2024-01-15T14:17:40;22.27;;;9.00;;
12088;SDS011;6107;49.078;8.578;2024-01-15T14:20:06;21.48;;;9.50;;
12088;SDS011;6107;49.078;8.578;2024-01-15T14:22:34;24.45;;;9.00;;
12088;SDS011;6107;49.078;8.578;2024-01-15T14:24:59;18.92;;;9.13;;
12088;SDS011;6107;49.078;8.578;2024-01-15T14:27:25;20.65;;;9.10;;
12088;SDS011;6107;49.078;8.578;2024-01-15T14:29:51;20.58;;;8.23;;
12088;SDS011;6107;49.078;8.578;2024-01-15T14:32:17;17.45;;;8.25;;
12088;SDS011;6107;49.078;8.578;2024-01-15T14:34:42;22.75;;;8.10;;
12088;SDS011;6107;49.078;8.578;2024-01-15T14:37:09;18.15;;;8.55;;
12088;SDS011;6107;49.078;8.578;2024-01-15T14:39:35;19.55;;;8.52;;
12088;SDS011;6107;49.078;8.578;2024-01-15T14:42:01;18.00;;;8.23;;
12088;SDS011;6107;49.078;8.578;2024-01-15T14:44:26;19.88;;;8.57;;
12088;SDS011;6107;49.078;8.578;2024-01-15T14:46:53;23.15;;;9.55;;
12088;SDS011;6107;49.078;8.578;2024-01-15T14:49:19;20.83;;;9.10;;
12088;SDS011;6107;49.078;8.578;2024-01-15T14:51:47;20.58;;;8.85;;